Portada
METAR-TAF:

METAR-TAF

Aeroports :

Aeroport Internacional de Bahrain

Bahrain, Bahrain

latitud: 26-16N, longitud: 050-39E, altitud: 2 m

Observació

L'informe es va fer fa 12 minuts, a les 08:30 UTC
Vent 21 kt del Nord/Nord-Oest
Temperatura 26°C
Humitat 54%
Pressió 1018 hPa
Visibilitat 10 km o més
Escasses núvols a una alçada de 1500 ft

METAR: OBBI 180830Z 33021KT 9999 FEW015 26/16 Q1018 NOSIG

Hora: 11:42 (08:42 UTC)

Pronòstic

L'informe es va fer fa 3 hores i 42 minuts, a les 05:00 UTC
Pronòstic vàlid del 18 a les 06 UTC al 19 a les 12 UTC
Vent 15 kt del Nord-Oest amb ràfegues de 25 kt
Visibilitat: 8000 m
Escasses núvols a una alçada de 2500 ft
Temporalment
l' 18 a les 06 UTC al 18 a les 08 UTC
Visibilitat: 4000 m
Núvols disperses a una alçada de 1000 ft
calitja

TAF: OBBI 180500Z 1806/1912 32015G25KT 8000 FEW025 TEMPO 1806/1808 4000 HZ SCT010

Observacions i pronòstics meteorològics de més de 4000 aeroports (METAR i TAF).

Les estacions disponibles són els punts grocs i vermells al mapa.

Posi el ratolí al punt desitjat per veure el nom de l'estació.

Feu clic per veure les observacions i els pronòstics meteorològics.

Per canviar el mapa: feu clic els botons verds amb una creu de color negre per apropar; al botó verd amb un guió per allunyar la imatge; o en les fletxes verdes per a mapes adjacents.


METAR-TAF: